Time;durP1;ratioP1;P1;durP2;ratioP2;P2;SDS_P1;SDS_P2;PMS_P1;PMS_P2;Temp;Humidity;BMP_temperature;BMP_pressure;BME280_temperature;BME280_humidity;BME280_pressure;Samples;Min_cycle;Max_cycle;Signal;HPM_P1;HPM_P2
2024/03/04 00:01:04;;;;;;;41.10;26.60;;;;;;;10.09;100.00;99172.01;182205;1236;46126;-81
2024/03/04 00:05:23;;;;;;;40.00;24.40;;;;;;;9.98;100.00;99167.95;182875;1239;59117;-82
2024/03/04 00:09:25;;;;;;;38.60;24.80;;;;;;;9.80;100.00;99168.04;183058;1235;46019;-82
2024/03/04 00:13:27;;;;;;;41.30;28.50;;;;;;;9.73;100.00;99169.45;182890;1239;46012;-81
2024/03/04 00:17:29;;;;;;;38.20;25.50;;;;;;;9.72;100.00;99171.10;183008;1235;46085;-82
2024/03/04 00:21:31;;;;;;;37.20;26.70;;;;;;;9.70;100.00;99170.24;184124;1234;46103;-82
2024/03/04 00:25:33;;;;;;;34.80;25.50;;;;;;;9.69;100.00;99170.36;182614;1238;57982;-82
2024/03/04 00:29:35;;;;;;;33.40;23.80;;;;;;;9.70;100.00;99169.91;183371;1237;46194;-82
2024/03/04 00:33:36;;;;;;;38.20;25.40;;;;;;;9.75;100.00;99172.13;183480;1237;44687;-82
2024/03/04 00:37:38;;;;;;;34.20;23.00;;;;;;;9.73;100.00;99170.38;182991;1239;46017;-82
2024/03/04 00:41:40;;;;;;;35.40;25.00;;;;;;;9.63;100.00;99167.27;182370;1238;45957;-82
2024/03/04 00:45:42;;;;;;;35.40;23.80;;;;;;;9.64;100.00;99169.80;182543;1235;58245;-81
2024/03/04 00:49:47;;;;;;;29.00;21.60;;;;;;;9.67;100.00;99175.35;182667;1239;46085;-81
2024/03/04 00:53:48;;;;;;;32.00;25.30;;;;;;;9.70;100.00;99181.09;182795;1236;44888;-82
2024/03/04 00:57:51;;;;;;;33.90;23.40;;;;;;;9.71;100.00;99177.23;182663;1239;45903;-82
2024/03/04 01:01:52;;;;;;;41.60;25.50;;;;;;;9.72;100.00;99174.98;182956;1238;46089;-82
2024/03/04 01:05:54;;;;;;;30.60;22.90;;;;;;;9.74;100.00;99180.15;183594;1235;57956;-81
2024/03/04 01:09:56;;;;;;;27.50;20.40;;;;;;;9.71;100.00;99176.95;183057;1239;46095;-82
2024/03/04 01:13:59;;;;;;;35.40;23.40;;;;;;;9.54;100.00;99170.38;182861;1235;46083;-82
2024/03/04 01:18:02;;;;;;;32.10;21.60;;;;;;;9.44;100.00;99176.77;182544;1238;46085;-82
2024/03/04 01:22:04;;;;;;;30.70;22.60;;;;;;;9.37;100.00;99173.08;183011;1239;46143;-82
2024/03/04 01:26:06;;;;;;;38.50;24.10;;;;;;;9.25;100.00;99171.99;182499;1236;59227;-82
2024/03/04 01:30:09;;;;;;;30.80;22.10;;;;;;;9.07;100.00;99180.45;182559;1235;46681;-82
2024/03/04 01:34:11;;;;;;;30.50;22.00;;;;;;;8.85;100.00;99183.36;182499;1235;45989;-81
2024/03/04 01:38:12;;;;;;;30.80;20.90;;;;;;;8.67;100.00;99183.14;182842;1236;46054;-81
2024/03/04 01:42:14;;;;;;;28.70;21.80;;;;;;;8.57;100.00;99181.05;182710;1238;44311;-82
2024/03/04 01:46:17;;;;;;;28.30;21.50;;;;;;;8.53;100.00;99184.64;182935;1237;57943;-82
2024/03/04 01:50:22;;;;;;;34.60;22.10;;;;;;;8.48;100.00;99185.43;183046;1239;46002;-82
2024/03/04 01:54:24;;;;;;;33.90;24.10;;;;;;;8.43;100.00;99186.20;182795;1239;45970;-82
2024/03/04 01:58:27;;;;;;;34.30;23.70;;;;;;;8.39;100.00;99187.22;182712;1237;45999;-81
2024/03/04 02:02:29;;;;;;;38.20;23.40;;;;;;;8.34;100.00;99182.25;182604;1237;46058;-82
2024/03/04 02:06:31;;;;;;;39.80;24.10;;;;;;;8.27;100.00;99182.30;182511;1237;57916;-82
2024/03/04 02:10:32;;;;;;;27.70;21.40;;;;;;;8.26;100.00;99186.64;182727;1239;45987;-82
2024/03/04 02:14:35;;;;;;;39.20;24.40;;;;;;;8.28;100.00;99194.23;182852;1234;46061;-82
2024/03/04 02:18:38;;;;;;;36.50;25.50;;;;;;;8.28;100.00;99195.66;182124;1239;46133;-81
2024/03/04 02:22:40;;;;;;;34.70;24.10;;;;;;;8.32;100.00;99196.19;182413;1239;46278;-81
2024/03/04 02:26:44;;;;;;;36.80;24.90;;;;;;;8.33;100.00;99200.85;182656;1235;59279;-82
2024/03/04 02:30:45;;;;;;;44.30;28.80;;;;;;;8.35;100.00;99202.41;182572;1237;45998;-82
2024/03/04 02:34:49;;;;;;;50.80;33.00;;;;;;;8.39;100.00;99206.48;182363;1239;46094;-82
2024/03/04 02:38:53;;;;;;;50.10;32.50;;;;;;;8.41;100.00;99206.84;182574;1239;46126;-82
2024/03/04 02:42:55;;;;;;;39.30;26.50;;;;;;;8.42;100.00;99207.09;182544;1235;46089;-81
2024/03/04 02:46:57;;;;;;;39.50;26.20;;;;;;;8.40;100.00;99205.84;182261;1235;59311;-81
2024/03/04 02:51:00;;;;;;;41.30;25.80;;;;;;;8.39;100.00;99206.33;182669;1237;46241;-83
2024/03/04 02:55:01;;;;;;;43.60;28.90;;;;;;;8.37;100.00;99209.55;182463;1237;46096;-82
2024/03/04 02:59:03;;;;;;;41.70;27.50;;;;;;;8.29;100.00;99215.14;182309;1237;46164;-82
2024/03/04 03:03:05;;;;;;;44.80;27.00;;;;;;;8.19;100.00;99214.28;182598;1234;45982;-82
2024/03/04 03:07:07;;;;;;;38.70;24.90;;;;;;;8.16;100.00;99212.40;182487;1235;59185;-82
2024/03/04 03:11:11;;;;;;;46.30;27.50;;;;;;;8.18;100.00;99214.97;183222;1237;46149;-82
2024/03/04 03:15:13;;;;;;;36.10;25.60;;;;;;;8.16;100.00;99215.08;182630;1236;46092;-82
2024/03/04 03:19:23;;;;;;;42.40;27.10;;;;;;;8.17;100.00;99215.00;182548;1239;45979;-82
2024/03/04 03:23:24;;;;;;;37.60;25.00;;;;;;;8.12;100.00;99216.80;182485;1236;45954;-82
2024/03/04 03:27:28;;;;;;;39.80;28.50;;;;;;;8.09;100.00;99213.78;182591;1235;57146;-82
2024/03/04 03:31:30;;;;;;;42.50;27.40;;;;;;;8.09;100.00;99219.55;182049;1235;46413;-82
2024/03/04 03:35:32;;;;;;;48.70;28.00;;;;;;;8.09;100.00;99218.88;182685;1236;45961;-82
2024/03/04 03:39:34;;;;;;;30.80;20.50;;;;;;;8.05;100.00;99220.48;182592;1235;45983;-82
2024/03/04 03:43:35;;;;;;;25.90;18.60;;;;;;;7.91;100.00;99222.35;182846;1236;45837;-82
2024/03/04 03:47:37;;;;;;;25.80;16.60;;;;;;;7.78;100.00;99230.61;183155;1235;60175;-81
2024/03/04 03:51:39;;;;;;;22.20;16.00;;;;;;;7.58;100.00;99235.64;182397;1239;46123;-82
2024/03/04 03:55:41;;;;;;;36.30;25.80;;;;;;;7.42;100.00;99240.31;182896;1238;46129;-83
2024/03/04 03:59:43;;;;;;;35.20;25.00;;;;;;;7.39;100.00;99241.70;182838;1235;45975;-82
2024/03/04 04:03:45;;;;;;;38.10;26.20;;;;;;;7.41;100.00;99244.34;183389;1235;46015;-82
2024/03/04 04:07:47;;;;;;;24.80;15.10;;;;;;;7.41;100.00;99246.21;182055;1235;59122;-81
2024/03/04 04:11:49;;;;;;;28.30;17.80;;;;;;;7.33;100.00;99243.77;182572;1235;45970;-83
2024/03/04 04:15:50;;;;;;;27.40;17.70;;;;;;;7.19;100.00;99250.54;182617;1235;46100;-83
2024/03/04 04:19:52;;;;;;;24.10;16.20;;;;;;;7.07;100.00;99249.84;182598;1238;46126;-84
2024/03/04 04:23:54;;;;;;;26.20;18.80;;;;;;;6.94;100.00;99248.73;183346;1235;46100;-83
2024/03/04 04:27:56;;;;;;;30.40;19.20;;;;;;;6.84;100.00;99248.01;183158;1239;58019;-84
2024/03/04 04:32:00;;;;;;;30.70;23.60;;;;;;;6.74;100.00;99252.55;182389;1240;45880;-84
2024/03/04 04:36:01;;;;;;;21.30;15.80;;;;;;;6.72;100.00;99255.15;183235;1235;45982;-84
2024/03/04 04:40:04;;;;;;;26.00;18.20;;;;;;;6.63;100.00;99256.77;183018;1235;44557;-83
2024/03/04 04:44:06;;;;;;;31.80;17.00;;;;;;;6.54;100.00;99256.02;182951;1240;46180;-84
2024/03/04 04:48:07;;;;;;;23.40;18.40;;;;;;;6.47;100.00;99257.84;183517;1240;60569;-84
2024/03/04 04:52:09;;;;;;;25.60;18.50;;;;;;;6.43;100.00;99260.66;183765;1239;46120;-85
2024/03/04 04:56:17;;;;;;;44.80;25.70;;;;;;;6.38;100.00;99258.05;182527;1235;45983;-85
2024/03/04 05:00:19;;;;;;;39.50;24.30;;;;;;;6.38;100.00;99260.86;182695;1235;45932;-84
2024/03/04 05:04:21;;;;;;;37.40;26.60;;;;;;;6.39;100.00;99262.73;183123;1239;44571;-85
2024/03/04 05:08:43;;;;;;;53.80;18.60;;;;;;;6.29;100.00;99264.20;183237;1239;59362;-85
2024/03/04 05:12:48;;;;;;;107.70;24.70;;;;;;;6.21;100.00;99267.20;183078;1235;46377;-83
2024/03/04 05:16:50;;;;;;;105.60;22.90;;;;;;;6.11;100.00;99269.84;182640;1237;46029;-85
2024/03/04 05:20:54;;;;;;;45.70;21.40;;;;;;;6.02;100.00;99269.54;183816;1235;46001;-84
2024/03/04 05:24:58;;;;;;;90.70;21.00;;;;;;;5.99;100.00;99277.11;183353;1235;46106;-84
2024/03/04 05:29:00;;;;;;;83.30;25.20;;;;;;;5.86;100.00;99284.41;183454;1235;58395;-84
2024/03/04 05:33:03;;;;;;;52.40;20.50;;;;;;;5.76;100.00;99285.27;183162;1240;46235;-83
2024/03/04 05:37:05;;;;;;;40.40;22.70;;;;;;;5.70;100.00;99291.33;183507;1240;46014;-85
2024/03/04 05:41:07;;;;;;;41.60;18.70;;;;;;;5.68;100.00;99298.30;182526;1238;45977;-84
2024/03/04 05:45:09;;;;;;;29.30;16.70;;;;;;;5.65;100.00;99298.41;182928;1235;46012;-83
2024/03/04 05:49:12;;;;;;;141.90;30.30;;;;;;;5.65;100.00;99302.92;184267;1235;59533;-84
2024/03/04 05:53:15;;;;;;;65.30;16.30;;;;;;;5.58;100.00;99306.66;182800;1235;46005;-83
2024/03/04 05:57:17;;;;;;;30.20;15.50;;;;;;;5.58;100.00;99315.95;182508;1235;46066;-84
2024/03/04 06:01:19;;;;;;;38.50;14.40;;;;;;;5.62;100.00;99314.99;183369;1235;45137;-84
2024/03/04 06:05:21;;;;;;;24.70;16.30;;;;;;;5.69;100.00;99315.67;183080;1240;46103;-81
2024/03/04 06:09:26;;;;;;;15.60;12.30;;;;;;;5.83;100.00;99326.36;182119;1240;58053;-83
2024/03/04 06:13:28;;;;;;;30.00;16.60;;;;;;;5.95;100.00;99331.67;182702;1236;45887;-84
2024/03/04 06:17:30;;;;;;;20.00;14.20;;;;;;;5.93;100.00;99334.46;183248;1235;46076;-85
2024/03/04 06:21:32;;;;;;;23.40;15.50;;;;;;;6.01;100.00;99338.88;182880;1239;46111;-84
2024/03/04 06:25:34;;;;;;;19.40;14.20;;;;;;;6.10;100.00;99338.38;183545;1235;45993;-84
2024/03/04 06:29:36;;;;;;;21.30;16.20;;;;;;;6.12;100.00;99337.59;182440;1235;58123;-83
2024/03/04 06:33:38;;;;;;;28.30;19.50;;;;;;;6.19;100.00;99338.25;183952;1236;45949;-84
2024/03/04 06:37:54;;;;;;;26.20;19.40;;;;;;;6.36;100.00;99345.04;182814;1235;46045;-84
2024/03/04 06:41:56;;;;;;;27.10;18.10;;;;;;;6.46;100.00;99341.08;182894;1235;45939;-83
2024/03/04 06:45:58;;;;;;;24.90;20.70;;;;;;;6.54;100.00;99344.31;182925;1235;46113;-84
2024/03/04 06:50:00;;;;;;;28.60;21.60;;;;;;;6.68;100.00;99350.38;182102;1238;58207;-85
2024/03/04 06:54:06;;;;;;;24.50;19.60;;;;;;;6.85;100.00;99354.35;182488;1235;45900;-83
2024/03/04 06:58:08;;;;;;;26.40;21.30;;;;;;;7.06;100.00;99355.62;183414;1235;46088;-83
2024/03/04 07:02:10;;;;;;;31.00;22.90;;;;;;;7.36;100.00;99362.40;182822;1235;46098;-85
2024/03/04 07:06:13;;;;;;;39.40;25.40;;;;;;;7.70;100.00;99362.58;183147;1235;44443;-84
2024/03/04 07:10:15;;;;;;;39.30;25.20;;;;;;;8.04;100.00;99367.10;183958;1235;57791;-82
2024/03/04 07:14:17;;;;;;;31.10;23.20;;;;;;;8.38;100.00;99382.23;182070;1235;46224;-84
2024/03/04 07:18:19;;;;;;;37.50;26.10;;;;;;;8.67;100.00;99383.10;183617;1235;46187;-84
2024/03/04 07:22:21;;;;;;;33.70;26.70;;;;;;;8.94;100.00;99379.83;184624;1235;44249;-83
2024/03/04 07:26:23;;;;;;;35.10;25.70;;;;;;;9.18;100.00;99378.73;183436;1235;45973;-84
2024/03/04 07:30:25;;;;;;;33.90;26.90;;;;;;;9.41;100.00;99378.95;182759;1235;58153;-83
2024/03/04 07:34:26;;;;;;;40.40;26.10;;;;;;;9.64;100.00;99384.82;182378;1237;46057;-84
2024/03/04 07:38:29;;;;;;;34.60;26.30;;;;;;;9.88;100.00;99391.71;182415;1235;46123;-84
2024/03/04 07:42:31;;;;;;;34.20;26.60;;;;;;;10.07;100.00;99389.94;182964;1235;46006;-83
2024/03/04 07:46:33;;;;;;;37.90;25.60;;;;;;;10.23;100.00;99385.73;182452;1235;46094;-85
2024/03/04 07:50:35;;;;;;;37.30;26.10;;;;;;;10.39;100.00;99387.09;182934;1235;59136;-84
2024/03/04 07:54:37;;;;;;;40.00;28.20;;;;;;;10.59;100.00;99385.10;182197;1240;46114;-82
2024/03/04 07:58:40;;;;;;;40.90;27.80;;;;;;;10.76;100.00;99384.34;182602;1235;46083;-83
2024/03/04 08:02:43;;;;;;;35.70;26.80;;;;;;;10.91;100.00;99385.70;182931;1235;46072;-84
2024/03/04 08:06:44;;;;;;;45.80;29.50;;;;;;;11.11;100.00;99388.19;182437;1235;45970;-85
2024/03/04 08:10:46;;;;;;;39.00;29.30;;;;;;;11.29;100.00;99384.01;183488;1235;57777;-84
2024/03/04 08:14:48;;;;;;;35.00;25.90;;;;;;;11.43;100.00;99386.19;182784;1235;46106;-84
2024/03/04 08:18:50;;;;;;;41.80;28.80;;;;;;;11.54;100.00;99388.11;183586;1235;45967;-84
2024/03/04 08:22:52;;;;;;;55.30;28.80;;;;;;;11.70;100.00;99386.63;182572;1235;45982;-84
2024/03/04 08:26:56;;;;;;;40.40;30.20;;;;;;;11.82;100.00;99380.67;183283;1235;45992;-84
2024/03/04 08:30:58;;;;;;;37.30;29.10;;;;;;;11.92;100.00;99381.41;182409;1238;59309;-84
2024/03/04 08:35:01;;;;;;;45.80;30.90;;;;;;;12.06;100.00;99378.98;182694;1235;46075;-84
2024/03/04 08:39:03;;;;;;;40.20;29.20;;;;;;;12.19;100.00;99379.80;182929;1239;46180;-83
2024/03/04 08:43:05;;;;;;;37.80;29.10;;;;;;;12.17;100.00;99384.12;182573;1239;45967;-83
2024/03/04 08:47:07;;;;;;;47.30;32.40;;;;;;;12.13;100.00;99388.36;182316;1236;46089;-83
2024/03/04 08:51:12;;;;;;;41.30;30.00;;;;;;;12.14;100.00;99397.37;183176;1236;59383;-82
2024/03/04 08:55:15;;;;;;;47.80;32.70;;;;;;;12.20;100.00;99398.73;182699;1235;44134;-83
2024/03/04 08:59:17;;;;;;;38.10;29.30;;;;;;;12.24;100.00;99400.64;182677;1235;45992;-82
2024/03/04 09:03:19;;;;;;;51.30;34.50;;;;;;;12.35;100.00;99403.80;182735;1237;46204;-84
2024/03/04 09:07:21;;;;;;;45.80;28.90;;;;;;;12.36;99.87;99408.22;183258;1235;46109;-84
2024/03/04 09:11:24;;;;;;;45.10;31.10;;;;;;;12.38;99.95;99407.86;182233;1235;59498;-85
2024/03/04 09:15:26;;;;;;;43.00;31.20;;;;;;;12.49;100.00;99402.38;182657;1239;44927;-84
2024/03/04 09:19:28;;;;;;;44.90;33.60;;;;;;;12.64;100.00;99400.98;182969;1235;46384;-85
2024/03/04 09:23:30;;;;;;;43.40;31.90;;;;;;;12.75;99.61;99400.75;182414;1235;45834;-85
2024/03/04 09:27:32;;;;;;;40.20;29.60;;;;;;;12.82;99.77;99404.56;182887;1235;46024;-83
2024/03/04 09:31:34;;;;;;;41.00;30.10;;;;;;;12.83;98.35;99403.27;183812;1235;58274;-84
2024/03/04 09:35:41;;;;;;;47.40;30.10;;;;;;;12.94;97.99;99405.30;183225;1235;46095;-85
2024/03/04 09:39:43;;;;;;;35.20;28.30;;;;;;;13.02;97.23;99402.85;182257;1238;46053;-83
2024/03/04 09:43:45;;;;;;;44.00;30.90;;;;;;;13.09;98.61;99401.59;183172;1235;46062;-84
2024/03/04 09:47:51;;;;;;;39.40;29.20;;;;;;;13.20;99.45;99400.27;182603;1235;46042;-84
2024/03/04 09:51:53;;;;;;;41.40;30.20;;;;;;;13.41;99.01;99404.48;182926;1235;59287;-83
2024/03/04 09:55:55;;;;;;;39.80;30.50;;;;;;;13.54;95.67;99403.02;183163;1238;46056;-85
2024/03/04 09:59:58;;;;;;;41.60;30.80;;;;;;;13.67;96.49;99408.63;183523;1235;44762;-84
2024/03/04 10:04:00;;;;;;;44.20;30.30;;;;;;;13.55;95.99;99410.23;182044;1235;46075;-84
2024/03/04 10:08:02;;;;;;;36.40;29.30;;;;;;;13.64;96.75;99417.31;183134;1235;46031;-83
2024/03/04 10:12:07;;;;;;;37.10;30.00;;;;;;;13.58;96.83;99418.64;183494;1235;59665;-85
2024/03/04 10:16:15;;;;;;;46.10;33.90;;;;;;;13.64;97.71;99424.45;182542;1235;46134;-83
2024/03/04 10:20:18;;;;;;;38.20;29.20;;;;;;;13.69;98.21;99420.34;183165;1235;45948;-85
2024/03/04 10:24:20;;;;;;;40.80;30.00;;;;;;;13.60;98.50;99419.84;182362;1235;45967;-83
2024/03/04 10:28:42;;;;;;;38.20;28.90;;;;;;;13.64;99.01;99419.79;182389;1235;46020;-82
2024/03/04 10:32:46;;;;;;;41.80;30.90;;;;;;;13.87;96.74;99424.30;183160;1236;57874;-84
2024/03/04 10:36:48;;;;;;;34.90;27.20;;;;;;;14.08;94.50;99423.41;182828;1235;46095;-85
2024/03/04 10:40:50;;;;;;;37.80;27.70;;;;;;;14.25;93.02;99423.55;182988;1235;46100;-85
2024/03/04 10:44:52;;;;;;;45.80;29.10;;;;;;;14.38;92.34;99421.20;183454;1235;46077;-85
2024/03/04 10:48:56;;;;;;;36.70;27.10;;;;;;;14.41;91.96;99424.44;182885;1235;46014;-85
2024/03/04 10:52:58;;;;;;;34.80;25.70;;;;;;;14.49;88.45;99421.90;182738;1235;58030;-83
2024/03/04 10:57:07;;;;;;;39.20;28.40;;;;;;;14.57;87.83;99421.34;183046;1235;45873;-84
2024/03/04 11:01:17;;;;;;;42.50;31.20;;;;;;;14.66;89.98;99420.86;182575;1239;45986;-83
2024/03/04 11:05:22;;;;;;;43.10;31.80;;;;;;;14.40;92.77;99423.33;182942;1235;45972;-83
2024/03/04 11:09:25;;;;;;;45.00;31.30;;;;;;;14.05;93.82;99426.02;182537;1235;46077;-84
2024/03/04 11:13:49;;;;;;;44.80;32.20;;;;;;;13.93;95.53;99427.20;182715;1235;58095;-82
2024/03/04 11:17:56;;;;;;;39.40;29.60;;;;;;;13.97;96.50;99429.21;182875;1235;46366;-83
2024/03/04 11:21:59;;;;;;;39.30;30.20;;;;;;;14.18;94.15;99426.56;182720;1239;46094;-84
2024/03/04 11:26:02;;;;;;;37.10;28.40;;;;;;;14.28;93.50;99424.11;182769;1236;46066;-85
2024/03/04 11:30:05;;;;;;;44.50;30.50;;;;;;;14.36;94.35;99417.84;183037;1235;262679;-84
2024/03/04 11:34:08;;;;;;;37.70;29.30;;;;;;;14.49;93.98;99418.55;183093;1239;57876;-84
2024/03/04 11:38:11;;;;;;;39.20;31.30;;;;;;;14.56;90.72;99419.70;182778;1235;46200;-84
2024/03/04 11:42:33;;;;;;;47.20;31.20;;;;;;;14.63;94.29;99419.31;183130;1235;46095;-84
2024/03/04 11:46:40;;;;;;;46.40;32.80;;;;;;;14.53;92.61;99422.19;183223;1235;46048;-83
2024/03/04 11:50:44;;;;;;;39.80;30.70;;;;;;;14.56;93.06;99424.35;183024;1235;44203;-84
2024/03/04 11:54:48;;;;;;;41.70;30.70;;;;;;;14.49;92.14;99430.37;182975;1235;58779;-84
2024/03/04 11:58:50;;;;;;;33.80;28.20;;;;;;;14.54;92.08;99430.09;182825;1235;46141;-84
2024/03/04 12:03:03;;;;;;;47.70;32.90;;;;;;;14.62;90.60;99429.77;183411;1235;45910;-82
2024/03/04 12:07:05;;;;;;;50.80;36.70;;;;;;;14.68;91.91;99429.33;182952;1234;46071;-83
2024/03/04 12:11:08;;;;;;;49.30;36.30;;;;;;;14.67;89.50;99430.52;182518;1235;46148;-83
2024/03/04 12:15:10;;;;;;;49.30;36.90;;;;;;;14.58;91.20;99426.74;183691;1239;58068;-81
2024/03/04 12:19:12;;;;;;;45.20;35.60;;;;;;;14.61;92.68;99426.41;182956;1235;46101;-83
2024/03/04 12:23:15;;;;;;;58.80;41.90;;;;;;;14.64;92.15;99427.73;183125;1237;46048;-84
2024/03/04 12:27:19;;;;;;;55.50;38.00;;;;;;;14.50;92.67;99429.55;182633;1235;44316;-83
2024/03/04 12:31:22;;;;;;;47.40;37.60;;;;;;;14.38;92.98;99428.89;183499;1237;44086;-84
2024/03/04 12:35:26;;;;;;;57.70;39.80;;;;;;;14.37;90.68;99437.56;183273;1235;59282;-85
2024/03/04 12:39:28;;;;;;;53.40;42.00;;;;;;;14.37;92.46;99441.11;183285;1235;46089;-85
2024/03/04 12:43:30;;;;;;;56.00;45.10;;;;;;;14.34;92.84;99445.33;183295;1235;46039;-85
2024/03/04 12:47:34;;;;;;;58.90;45.60;;;;;;;14.27;93.83;99450.90;182991;1239;44512;-85
2024/03/04 12:51:36;;;;;;;54.60;42.70;;;;;;;14.16;94.56;99450.88;183023;1239;45159;-84
2024/03/04 12:55:40;;;;;;;58.00;43.70;;;;;;;14.01;93.62;99454.69;183161;1235;59945;-85
2024/03/04 12:59:44;;;;;;;53.00;41.50;;;;;;;13.93;96.43;99458.05;183401;1235;43987;-83
2024/03/04 13:03:46;;;;;;;54.90;44.50;;;;;;;14.00;96.43;99459.23;183002;1236;45964;-84
2024/03/04 13:07:48;;;;;;;68.00;47.80;;;;;;;14.09;95.04;99460.42;183149;1239;45991;-84
2024/03/04 13:11:52;;;;;;;61.00;45.20;;;;;;;14.09;92.23;99458.45;182422;1239;46120;-83
2024/03/04 13:15:55;;;;;;;68.70;47.90;;;;;;;13.97;94.24;99462.90;182401;1234;59361;-84
2024/03/04 13:19:57;;;;;;;69.60;52.00;;;;;;;13.79;95.36;99464.48;182522;1235;46085;-83
2024/03/04 13:23:58;;;;;;;77.20;57.80;;;;;;;13.61;95.42;99464.27;183517;1237;46151;-82
2024/03/04 13:28:00;;;;;;;82.70;59.50;;;;;;;13.53;96.06;99464.59;182750;1235;46089;-84
2024/03/04 13:32:03;;;;;;;79.80;54.00;;;;;;;13.44;94.77;99474.48;182861;1235;45996;-84
2024/03/04 13:36:05;;;;;;;74.30;52.40;;;;;;;13.36;96.47;99468.34;182664;1235;58258;-84
2024/03/04 13:40:09;;;;;;;86.60;56.10;;;;;;;13.37;95.66;99471.65;184176;1235;46089;-84
2024/03/04 13:44:11;;;;;;;66.70;50.90;;;;;;;13.41;94.22;99476.95;182453;1235;46153;-83
2024/03/04 13:48:13;;;;;;;82.50;56.40;;;;;;;13.36;94.51;99476.59;182890;1235;44144;-83
2024/03/04 13:52:16;;;;;;;74.00;56.40;;;;;;;13.27;95.70;99481.69;182868;1239;46027;-84
2024/03/04 13:56:17;;;;;;;76.40;54.00;;;;;;;13.18;98.34;99482.89;182881;1235;58102;-81
2024/03/04 14:00:22;;;;;;;79.90;54.50;;;;;;;13.02;96.64;99496.82;181405;1235;46084;-85
2024/03/04 14:04:25;;;;;;;70.20;53.10;;;;;;;12.87;96.89;99499.13;182730;1235;46260;-84
2024/03/04 14:08:27;;;;;;;73.60;53.80;;;;;;;12.78;98.02;99497.52;183375;1234;46008;-83
2024/03/04 14:12:29;;;;;;;78.60;57.20;;;;;;;12.68;99.12;99505.14;182589;1235;46200;-84
2024/03/04 14:16:30;;;;;;;73.50;53.80;;;;;;;12.51;100.00;99505.29;182243;1235;59304;-84
2024/03/04 14:20:33;;;;;;;76.10;53.80;;;;;;;12.39;99.98;99511.05;182460;1236;46296;-83
2024/03/04 14:24:34;;;;;;;74.30;55.10;;;;;;;12.24;99.28;99510.31;182804;1235;45969;-84
2024/03/04 14:28:36;;;;;;;68.50;47.50;;;;;;;12.11;99.41;99510.84;183660;1236;46218;-85
2024/03/04 14:32:40;;;;;;;76.60;52.40;;;;;;;11.94;99.72;99518.27;183562;1235;45985;-85
2024/03/04 14:36:42;;;;;;;77.70;53.50;;;;;;;11.80;99.73;99516.96;183829;1235;57480;-85
2024/03/04 14:40:44;;;;;;;73.00;48.80;;;;;;;11.64;99.38;99524.73;183227;1235;46109;-86
2024/03/04 14:44:48;;;;;;;74.60;49.80;;;;;;;11.44;99.94;99528.94;182609;1235;45986;-85
2024/03/04 14:48:50;;;;;;;63.70;45.60;;;;;;;11.27;100.00;99533.58;184078;1235;46096;-85
2024/03/04 14:52:52;;;;;;;65.20;47.00;;;;;;;11.17;100.00;99541.31;183047;1235;45941;-85
2024/03/04 14:56:53;;;;;;;76.00;50.50;;;;;;;11.09;100.00;99547.63;183043;1235;58930;-85
2024/03/04 15:00:55;;;;;;;75.30;50.30;;;;;;;10.97;100.00;99544.63;184118;1235;45939;-84
2024/03/04 15:04:57;;;;;;;75.20;48.30;;;;;;;10.93;100.00;99547.83;183197;1235;44181;-84
2024/03/04 15:09:01;;;;;;;73.10;49.30;;;;;;;10.89;100.00;99550.73;182761;1234;46104;-83
2024/03/04 15:13:05;;;;;;;76.70;51.30;;;;;;;10.81;100.00;99548.38;184448;1238;45828;-84
2024/03/04 15:17:08;;;;;;;78.50;50.70;;;;;;;10.76;100.00;99554.77;183240;1235;60271;-83
2024/03/04 15:21:10;;;;;;;76.00;51.30;;;;;;;10.75;100.00;99557.86;183302;1236;44009;-84
2024/03/04 15:25:15;;;;;;;72.20;50.40;;;;;;;10.75;100.00;99564.30;184660;1235;45944;-84
2024/03/04 15:29:17;;;;;;;73.20;47.90;;;;;;;10.74;100.00;99569.65;183771;1235;45970;-83
2024/03/04 15:33:21;;;;;;;64.70;46.60;;;;;;;10.62;100.00;99572.60;182471;1239;46210;-84
2024/03/04 15:37:24;;;;;;;75.50;50.00;;;;;;;10.54;100.00;99573.48;182620;1235;59127;-83
2024/03/04 15:41:26;;;;;;;59.70;45.50;;;;;;;10.42;100.00;99588.05;183015;1235;46037;-84
2024/03/04 15:45:28;;;;;;;77.20;51.90;;;;;;;10.34;100.00;99590.27;182293;1235;46283;-84
2024/03/04 15:49:30;;;;;;;67.20;48.00;;;;;;;10.22;100.00;99597.95;183105;1239;44198;-85
2024/03/04 15:53:33;;;;;;;66.80;46.70;;;;;;;10.14;100.00;99594.60;181994;1238;45967;-84
2024/03/04 15:57:35;;;;;;;77.60;52.40;;;;;;;10.07;100.00;99601.41;182804;1236;59412;-84
2024/03/04 16:01:37;;;;;;;85.10;51.20;;;;;;;9.99;100.00;99607.47;183217;1236;45870;-84
2024/03/04 16:05:39;;;;;;;72.70;50.20;;;;;;;9.90;100.00;99616.56;182574;1235;46085;-84
2024/03/04 16:09:42;;;;;;;81.90;52.40;;;;;;;9.85;100.00;99615.28;182602;1235;46047;-83
2024/03/04 16:13:44;;;;;;;76.90;51.30;;;;;;;9.79;100.00;99623.02;182883;1235;45975;-84
2024/03/04 16:17:46;;;;;;;74.60;52.80;;;;;;;9.71;100.00;99623.58;182451;1236;59439;-84
2024/03/04 16:21:48;;;;;;;93.80;54.30;;;;;;;9.64;100.00;99627.36;182548;1235;45880;-84
2024/03/04 16:25:50;;;;;;;75.30;53.70;;;;;;;9.58;100.00;99629.66;182345;1235;44070;-84
2024/03/04 16:29:52;;;;;;;80.60;54.50;;;;;;;9.51;100.00;99637.50;182920;1239;45976;-83
2024/03/04 16:33:54;;;;;;;68.90;49.70;;;;;;;9.42;100.00;99644.90;183035;1237;45983;-84
2024/03/04 16:37:55;;;;;;;80.90;51.30;;;;;;;9.32;100.00;99644.88;183088;1236;57930;-84
2024/03/04 16:41:58;;;;;;;70.70;50.10;;;;;;;9.28;100.00;99646.10;182688;1235;46117;-83
2024/03/04 16:46:05;;;;;;;84.50;53.20;;;;;;;9.29;100.00;99645.30;182861;1239;45976;-83
2024/03/04 16:50:11;;;;;;;84.40;51.90;;;;;;;9.30;100.00;99649.80;182240;1235;46010;-84
2024/03/04 16:54:14;;;;;;;77.20;49.80;;;;;;;9.29;100.00;99654.68;182098;1237;46038;-85
2024/03/04 16:58:16;;;;;;;78.70;51.40;;;;;;;9.29;100.00;99660.14;182898;1234;57796;-86
2024/03/04 17:02:18;;;;;;;82.60;54.60;;;;;;;9.29;100.00;99666.70;182355;1238;45987;-87
2024/03/04 17:06:20;;;;;;;82.60;53.10;;;;;;;9.27;100.00;99669.54;182275;1235;44917;-86
2024/03/04 17:10:22;;;;;;;72.90;52.50;;;;;;;9.23;100.00;99678.13;182140;1235;46091;-86
2024/03/04 17:14:24;;;;;;;76.60;57.10;;;;;;;9.19;100.00;99682.06;183124;1235;45976;-86
2024/03/04 17:18:26;;;;;;;81.90;53.80;;;;;;;9.17;100.00;99680.48;182752;1236;58031;-85
2024/03/04 17:22:28;;;;;;;82.40;53.70;;;;;;;9.10;100.00;99688.45;182556;1235;46089;-86
2024/03/04 17:26:30;;;;;;;85.90;56.20;;;;;;;9.07;100.00;99685.70;183130;1237;46194;-85
2024/03/04 17:30:32;;;;;;;81.60;56.10;;;;;;;9.06;100.00;99688.29;182611;1235;46060;-87
2024/03/04 17:34:35;;;;;;;98.10;59.80;;;;;;;9.00;100.00;99689.77;182789;1238;44581;-86
2024/03/04 17:38:37;;;;;;;81.60;57.60;;;;;;;8.97;100.00;99695.05;182415;1235;57896;-87
2024/03/04 17:42:39;;;;;;;86.50;58.20;;;;;;;8.91;100.00;99694.49;182115;1239;46074;-86
2024/03/04 17:46:45;;;;;;;88.50;55.10;;;;;;;8.89;100.00;99695.21;182548;1236;46014;-84
2024/03/04 17:50:47;;;;;;;83.80;54.70;;;;;;;8.88;100.00;99701.97;182694;1235;46097;-84
2024/03/04 17:54:51;;;;;;;82.30;54.60;;;;;;;8.87;100.00;99704.40;182480;1236;44225;-85
2024/03/04 17:58:55;;;;;;;89.10;56.10;;;;;;;8.84;100.00;99712.26;182371;1236;58143;-85
2024/03/04 18:02:57;;;;;;;83.50;55.80;;;;;;;8.79;100.00;99720.46;182082;1237;46094;-84
2024/03/04 18:06:59;;;;;;;81.80;52.80;;;;;;;8.74;100.00;99729.30;182513;1238;46802;-85
2024/03/04 18:11:01;;;;;;;74.50;49.60;;;;;;;8.72;100.00;99733.38;182836;1238;46071;-84
2024/03/04 18:15:03;;;;;;;89.20;55.50;;;;;;;8.67;100.00;99732.67;182234;1238;45977;-85
2024/03/04 18:19:06;;;;;;;79.70;48.90;;;;;;;8.67;100.00;99736.77;182341;1239;59626;-86